Time;durP1;ratioP1;P1;durP2;ratioP2;P2;SDS_P1;SDS_P2;PMS_P1;PMS_P2;Temp;Humidity;BMP_temperature;BMP_pressure;BME280_temperature;BME280_humidity;BME280_pressure;Samples;Min_cycle;Max_cycle;Signal;HPM_P1;HPM_P2
2021/10/16 00:02:11;;;;;;;6.25;3.50;;;8.00;99.90;;;;;;5031215;28;20033;-81
2021/10/16 00:04:37;;;;;;;8.00;4.38;;;8.00;99.90;;;;;;5026826;28;20038;-81
2021/10/16 00:07:02;;;;;;;9.90;4.88;;;8.00;99.90;;;;;;5025835;28;20588;-79
2021/10/16 00:09:28;;;;;;;8.05;4.15;;;8.00;99.90;;;;;;5030384;28;20040;-79
2021/10/16 00:11:53;;;;;;;6.88;4.20;;;7.90;99.90;;;;;;5014198;28;20507;-80
2021/10/16 00:14:19;;;;;;;12.93;4.53;;;7.90;99.90;;;;;;5041567;28;20026;-79
2021/10/16 00:16:44;;;;;;;6.70;4.93;;;7.90;99.90;;;;;;5019396;28;20044;-79
2021/10/16 00:19:10;;;;;;;11.18;5.05;;;7.90;99.90;;;;;;5015405;28;20469;-79
2021/10/16 00:21:37;;;;;;;5.88;4.00;;;7.90;99.90;;;;;;5033782;28;20057;-79
2021/10/16 00:24:03;;;;;;;6.45;4.30;;;7.90;99.90;;;;;;5039754;28;20116;-79
2021/10/16 00:26:29;;;;;;;10.30;4.22;;;7.80;99.90;;;;;;5038597;28;20041;-78
2021/10/16 00:28:57;;;;;;;7.18;3.97;;;7.90;99.90;;;;;;5031846;28;20470;-78
2021/10/16 00:31:23;;;;;;;6.75;4.20;;;7.80;99.90;;;;;;5032035;28;20026;-79
2021/10/16 00:33:48;;;;;;;11.48;4.63;;;7.80;99.90;;;;;;5036239;28;20030;-78
2021/10/16 00:36:14;;;;;;;7.68;3.85;;;7.80;99.90;;;;;;5029501;28;20029;-81
2021/10/16 00:38:39;;;;;;;10.05;5.18;;;7.80;99.90;;;;;;5025428;28;20090;-81
2021/10/16 00:41:05;;;;;;;6.60;3.95;;;7.80;99.90;;;;;;5017434;28;20034;-80
2021/10/16 00:43:30;;;;;;;8.52;4.10;;;7.70;99.90;;;;;;5020487;28;20057;-79
2021/10/16 00:45:56;;;;;;;7.65;3.67;;;7.70;99.90;;;;;;5038885;28;20041;-82
2021/10/16 00:48:21;;;;;;;7.03;4.30;;;7.80;99.90;;;;;;5027698;28;20026;-79
2021/10/16 00:50:47;;;;;;;5.97;4.45;;;7.70;99.90;;;;;;5024995;28;20390;-81
2021/10/16 00:53:14;;;;;;;9.07;4.18;;;7.70;99.90;;;;;;5039020;28;20033;-82
2021/10/16 00:55:40;;;;;;;8.93;3.65;;;7.70;99.90;;;;;;5031253;28;20474;-82
2021/10/16 00:58:05;;;;;;;5.82;4.05;;;7.70;99.90;;;;;;5024354;28;20108;-81
2021/10/16 01:00:31;;;;;;;5.55;3.88;;;7.60;99.90;;;;;;5022552;28;20116;-82
2021/10/16 01:02:57;;;;;;;6.47;4.28;;;7.60;99.90;;;;;;5029378;28;20030;-83
2021/10/16 01:05:22;;;;;;;7.07;4.22;;;7.60;99.90;;;;;;5026169;28;20489;-80
2021/10/16 01:07:48;;;;;;;12.10;4.70;;;7.60;99.90;;;;;;5019031;28;20496;-80
2021/10/16 01:10:14;;;;;;;6.78;4.60;;;7.60;99.90;;;;;;5023573;28;20458;-82
2021/10/16 01:12:41;;;;;;;9.70;4.30;;;7.50;99.90;;;;;;5019933;28;20444;-80
2021/10/16 01:15:11;;;;;;;10.63;5.18;;;7.50;99.90;;;;;;5014142;28;20457;-80
2021/10/16 01:17:37;;;;;;;11.18;4.22;;;7.50;99.90;;;;;;5020073;28;20385;-81
2021/10/16 01:20:07;;;;;;;7.32;4.38;;;7.50;99.90;;;;;;5023899;28;20043;-81
2021/10/16 01:22:35;;;;;;;6.13;3.90;;;7.50;99.90;;;;;;5026667;28;20040;-79
2021/10/16 01:25:02;;;;;;;8.48;4.68;;;7.50;99.90;;;;;;5028351;28;20046;-82
2021/10/16 01:27:28;;;;;;;8.13;4.25;;;7.50;99.90;;;;;;5023576;28;20050;-82
2021/10/16 01:29:54;;;;;;;8.40;4.70;;;7.40;99.90;;;;;;5026756;28;20033;-81
2021/10/16 01:32:19;;;;;;;6.90;4.45;;;7.40;99.90;;;;;;5020940;28;20033;-81
2021/10/16 01:34:45;;;;;;;7.97;4.13;;;7.40;99.90;;;;;;5013856;28;20117;-80
2021/10/16 01:37:10;;;;;;;9.60;4.40;;;7.40;99.90;;;;;;5032340;28;20029;-81
2021/10/16 01:39:36;;;;;;;10.10;4.68;;;7.40;99.90;;;;;;5034880;28;20033;-81
2021/10/16 01:42:01;;;;;;;7.82;5.10;;;7.30;99.90;;;;;;5028496;28;20026;-78
2021/10/16 01:44:27;;;;;;;11.10;4.88;;;7.30;99.90;;;;;;5021574;28;20034;-81
2021/10/16 01:46:53;;;;;;;7.55;4.43;;;7.30;99.90;;;;;;5023680;28;20470;-81
2021/10/16 01:49:19;;;;;;;6.93;4.80;;;7.30;99.90;;;;;;5016315;28;20037;-80
2021/10/16 01:51:48;;;;;;;9.50;4.55;;;7.30;99.90;;;;;;5017411;28;20112;-80
2021/10/16 01:54:14;;;;;;;8.43;4.57;;;7.30;99.90;;;;;;5021566;28;20025;-81
2021/10/16 01:56:39;;;;;;;7.40;4.82;;;7.20;99.90;;;;;;5025496;28;20025;-80
2021/10/16 01:59:21;;;;;;;8.18;4.72;;;7.20;99.90;;;;;;5027062;28;20692;-79
2021/10/16 02:01:46;;;;;;;7.30;4.82;;;7.20;99.90;;;;;;5026008;28;20069;-81
2021/10/16 02:04:13;;;;;;;8.43;4.72;;;7.20;99.90;;;;;;5015268;28;20057;-79
2021/10/16 02:06:39;;;;;;;7.15;4.93;;;7.20;99.90;;;;;;5026390;28;20453;-79
2021/10/16 02:09:05;;;;;;;8.93;4.82;;;7.10;99.90;;;;;;5026046;28;20025;-79
2021/10/16 02:11:31;;;;;;;6.30;4.53;;;7.10;99.90;;;;;;5022385;28;20098;-80
2021/10/16 02:13:57;;;;;;;7.47;4.00;;;7.20;99.90;;;;;;5028846;28;20030;-80
2021/10/16 02:16:23;;;;;;;7.65;4.72;;;7.10;99.90;;;;;;5027240;28;20439;-81
2021/10/16 02:18:48;;;;;;;7.78;5.07;;;7.10;99.90;;;;;;5025014;28;20152;-79
2021/10/16 02:21:14;;;;;;;9.98;4.93;;;7.10;99.90;;;;;;5028650;28;20040;-81
2021/10/16 02:23:39;;;;;;;8.68;5.25;;;7.10;99.90;;;;;;5028877;28;20029;-82
2021/10/16 02:26:05;;;;;;;9.10;5.03;;;7.10;99.90;;;;;;5026105;28;20084;-81
2021/10/16 02:28:30;;;;;;;8.98;4.78;;;7.10;99.90;;;;;;5026160;28;20065;-78
2021/10/16 02:30:56;;;;;;;7.25;5.32;;;7.10;99.90;;;;;;5017549;28;20029;-81
2021/10/16 02:33:21;;;;;;;10.05;5.18;;;7.10;99.90;;;;;;5021789;28;20032;-81
2021/10/16 02:35:47;;;;;;;9.20;4.80;;;7.10;99.90;;;;;;5034530;28;20094;-78
2021/10/16 02:38:12;;;;;;;10.82;5.50;;;7.10;99.90;;;;;;5027157;28;20061;-82
2021/10/16 02:40:38;;;;;;;8.90;5.55;;;7.10;99.90;;;;;;5020947;28;20217;-81
2021/10/16 02:43:04;;;;;;;10.68;6.13;;;7.10;99.90;;;;;;5033527;28;20052;-79
2021/10/16 02:45:30;;;;;;;11.63;5.95;;;7.10;99.90;;;;;;5024838;28;20156;-80
2021/10/16 02:47:55;;;;;;;7.28;4.63;;;7.10;99.90;;;;;;5022479;28;20534;-79
2021/10/16 02:50:21;;;;;;;9.02;5.38;;;7.10;99.90;;;;;;5033700;28;20061;-79
2021/10/16 02:52:46;;;;;;;8.25;5.68;;;7.10;99.90;;;;;;5020445;28;20029;-80
2021/10/16 02:55:12;;;;;;;7.65;5.30;;;7.10;99.90;;;;;;5025599;28;20478;-79
2021/10/16 02:57:38;;;;;;;10.25;5.55;;;7.10;99.90;;;;;;5028000;28;20064;-80
2021/10/16 03:00:04;;;;;;;14.50;5.72;;;7.10;99.90;;;;;;5025784;28;20563;-80
2021/10/16 03:02:30;;;;;;;7.18;5.28;;;7.10;99.90;;;;;;5027730;28;20470;-79
2021/10/16 03:04:55;;;;;;;10.13;5.38;;;7.10;99.90;;;;;;5028048;28;20121;-80
2021/10/16 03:07:21;;;;;;;8.65;5.82;;;7.10;99.90;;;;;;5043587;28;20033;-80
2021/10/16 03:09:46;;;;;;;9.73;5.82;;;7.10;99.90;;;;;;5021037;28;20057;-79
2021/10/16 03:12:12;;;;;;;7.85;5.47;;;7.10;99.90;;;;;;5024590;28;20034;-79
2021/10/16 03:14:37;;;;;;;12.15;6.43;;;7.10;99.90;;;;;;5020012;28;20046;-80
2021/10/16 03:17:03;;;;;;;9.50;5.60;;;7.10;99.90;;;;;;5026721;28;20044;-79
2021/10/16 03:19:28;;;;;;;8.82;6.30;;;7.10;99.90;;;;;;5022388;28;20034;-80
2021/10/16 03:21:54;;;;;;;11.50;6.32;;;7.10;99.90;;;;;;5031867;28;20037;-80
2021/10/16 03:24:20;;;;;;;10.63;6.00;;;7.10;99.90;;;;;;5029493;28;20033;-81
2021/10/16 03:26:45;;;;;;;12.63;6.43;;;7.10;99.90;;;;;;5036433;28;20041;-81
2021/10/16 03:29:11;;;;;;;12.95;7.47;;;7.10;99.90;;;;;;5033853;28;20040;-80
2021/10/16 03:31:38;;;;;;;9.75;6.53;;;7.10;99.90;;;;;;5024949;28;20026;-80
2021/10/16 03:34:04;;;;;;;11.02;6.35;;;7.10;99.90;;;;;;5026658;28;20475;-82
2021/10/16 03:36:29;;;;;;;9.95;6.30;;;7.10;99.90;;;;;;5020861;28;20032;-82
2021/10/16 03:38:55;;;;;;;9.40;6.65;;;7.10;99.90;;;;;;5017140;28;20038;-81
2021/10/16 03:41:20;;;;;;;11.45;7.63;;;7.10;99.90;;;;;;5030926;28;20498;-81
2021/10/16 03:43:46;;;;;;;14.00;5.90;;;7.10;99.90;;;;;;5025556;28;20083;-80
2021/10/16 03:46:12;;;;;;;12.43;5.80;;;7.10;99.90;;;;;;5022765;28;20050;-81
2021/10/16 03:48:37;;;;;;;12.25;6.38;;;7.10;99.90;;;;;;5018664;28;20026;-79
2021/10/16 03:51:03;;;;;;;13.27;5.95;;;7.10;99.90;;;;;;5030094;28;20041;-79
2021/10/16 03:53:29;;;;;;;13.90;6.25;;;7.10;99.90;;;;;;5028875;28;20108;-81
2021/10/16 03:55:54;;;;;;;14.35;6.78;;;7.10;99.90;;;;;;5026256;28;20040;-79
2021/10/16 03:58:20;;;;;;;11.93;6.25;;;7.10;99.90;;;;;;5029250;28;20029;-79
2021/10/16 04:00:48;;;;;;;9.07;5.85;;;7.10;99.90;;;;;;5018719;28;20178;-79
2021/10/16 04:03:16;;;;;;;11.85;6.63;;;7.00;99.90;;;;;;5018740;28;20458;-80
2021/10/16 04:05:42;;;;;;;15.30;6.80;;;7.00;99.90;;;;;;5025628;28;20172;-80
2021/10/16 04:08:08;;;;;;;12.93;7.35;;;7.00;99.90;;;;;;5028898;28;20105;-79
2021/10/16 04:10:35;;;;;;;14.10;7.13;;;7.00;99.90;;;;;;5020534;28;20029;-79
2021/10/16 04:13:03;;;;;;;9.00;6.03;;;6.90;99.90;;;;;;5028923;28;20200;-80
2021/10/16 04:15:28;;;;;;;8.05;5.80;;;6.90;99.90;;;;;;5023052;28;20039;-80
2021/10/16 04:17:54;;;;;;;13.73;6.28;;;6.90;99.90;;;;;;5026022;28;20030;-80
2021/10/16 04:20:21;;;;;;;14.30;6.57;;;6.90;99.90;;;;;;5027221;28;20541;-80
2021/10/16 04:22:47;;;;;;;10.48;6.35;;;6.80;99.90;;;;;;5031242;28;20032;-81
2021/10/16 04:25:12;;;;;;;11.65;6.80;;;6.80;99.90;;;;;;5023437;28;20041;-81
2021/10/16 04:27:38;;;;;;;9.75;6.18;;;6.80;99.90;;;;;;5025676;28;20040;-80
2021/10/16 04:30:05;;;;;;;11.55;6.40;;;6.80;99.90;;;;;;5025444;28;20633;-81
2021/10/16 04:32:31;;;;;;;12.43;6.50;;;6.70;99.90;;;;;;5021837;28;20474;-80
2021/10/16 04:34:56;;;;;;;9.82;6.32;;;6.70;99.90;;;;;;5027413;28;20036;-80
2021/10/16 04:37:22;;;;;;;10.57;6.50;;;6.70;99.90;;;;;;5023086;28;20026;-80
2021/10/16 04:39:48;;;;;;;12.40;7.03;;;6.70;99.90;;;;;;5034157;28;20038;-81
2021/10/16 04:42:15;;;;;;;10.85;6.55;;;6.80;99.90;;;;;;5014129;28;20394;-80
2021/10/16 04:44:41;;;;;;;10.10;5.65;;;6.80;99.90;;;;;;5009839;28;20468;-80
2021/10/16 04:47:07;;;;;;;14.02;7.22;;;6.80;99.90;;;;;;5009147;28;20133;-81
2021/10/16 04:49:34;;;;;;;11.63;7.03;;;6.80;99.90;;;;;;5018423;28;20477;-81
2021/10/16 04:52:01;;;;;;;10.02;6.72;;;6.80;99.90;;;;;;5020023;28;20456;-79
2021/10/16 04:54:27;;;;;;;15.82;6.32;;;6.80;99.90;;;;;;5029254;28;20738;-81
2021/10/16 04:56:52;;;;;;;11.40;6.28;;;6.80;99.90;;;;;;5028132;28;20033;-80
2021/10/16 04:59:18;;;;;;;12.85;6.57;;;6.80;99.90;;;;;;5043125;28;20394;-80
2021/10/16 05:01:43;;;;;;;10.65;5.95;;;6.80;99.90;;;;;;5042510;28;20025;-79
2021/10/16 05:04:09;;;;;;;7.50;5.32;;;6.70;99.90;;;;;;5027863;28;20108;-81
2021/10/16 05:06:34;;;;;;;10.40;5.80;;;6.70;99.90;;;;;;5028773;28;20048;-80
2021/10/16 05:09:00;;;;;;;8.82;5.82;;;6.70;99.90;;;;;;5024059;28;20628;-80
2021/10/16 05:11:26;;;;;;;10.38;6.43;;;6.70;99.90;;;;;;5025219;28;20068;-82
2021/10/16 05:13:51;;;;;;;9.48;6.13;;;6.70;99.90;;;;;;5029496;28;20057;-81
2021/10/16 05:16:17;;;;;;;11.38;6.10;;;6.70;99.90;;;;;;5029631;28;20032;-82
2021/10/16 05:18:43;;;;;;;18.30;7.07;;;6.80;99.90;;;;;;5028410;28;20087;-80
2021/10/16 05:21:09;;;;;;;11.50;7.38;;;6.70;99.90;;;;;;5023163;28;20038;-79
2021/10/16 05:23:35;;;;;;;10.60;6.50;;;6.70;99.90;;;;;;5027272;28;20033;-80
2021/10/16 05:26:00;;;;;;;12.15;6.93;;;6.80;99.90;;;;;;5026970;28;20041;-80
2021/10/16 05:28:26;;;;;;;12.55;6.78;;;6.80;99.90;;;;;;5023365;28;20037;-83
2021/10/16 05:30:51;;;;;;;12.82;6.97;;;6.80;99.90;;;;;;5028681;28;20033;-81
2021/10/16 05:33:17;;;;;;;11.45;7.47;;;6.90;99.90;;;;;;5027132;28;20029;-80
2021/10/16 05:35:45;;;;;;;10.25;6.55;;;6.90;99.90;;;;;;5028380;28;20072;-82
2021/10/16 05:38:12;;;;;;;12.05;7.43;;;6.90;99.90;;;;;;5026115;28;21446;-81
2021/10/16 05:40:38;;;;;;;13.80;7.93;;;7.00;99.90;;;;;;5026513;28;20092;-80
2021/10/16 05:43:04;;;;;;;15.07;7.93;;;7.00;99.90;;;;;;5024442;28;20112;-83
2021/10/16 05:45:29;;;;;;;16.83;8.18;;;7.10;99.90;;;;;;5022020;28;20121;-81
2021/10/16 05:47:55;;;;;;;17.52;8.05;;;7.10;99.90;;;;;;5022645;28;20032;-80
2021/10/16 05:50:20;;;;;;;13.90;8.57;;;7.20;99.90;;;;;;5023559;28;20518;-83
2021/10/16 05:52:46;;;;;;;21.48;9.82;;;7.20;99.90;;;;;;5040164;28;20026;-80
2021/10/16 05:55:11;;;;;;;18.23;8.75;;;7.20;99.90;;;;;;5028966;28;20065;-80
2021/10/16 05:57:37;;;;;;;15.57;7.53;;;7.30;99.90;;;;;;5027218;28;20025;-80
2021/10/16 06:00:04;;;;;;;19.80;8.15;;;7.30;99.90;;;;;;5025282;28;20037;-81
2021/10/16 06:02:30;;;;;;;14.88;7.15;;;7.40;99.90;;;;;;5016810;28;20402;-81
2021/10/16 06:04:55;;;;;;;15.35;6.88;;;7.40;99.90;;;;;;5027730;28;20036;-81
2021/10/16 06:07:21;;;;;;;15.30;8.10;;;7.40;99.90;;;;;;5027505;28;20055;-82
2021/10/16 06:09:46;;;;;;;20.05;7.13;;;7.50;99.90;;;;;;5014944;28;20033;-81
2021/10/16 06:12:12;;;;;;;13.80;7.20;;;7.60;99.90;;;;;;5029169;28;20037;-81
2021/10/16 06:14:37;;;;;;;15.68;7.40;;;7.60;99.90;;;;;;5031088;28;20509;-80
2021/10/16 06:17:03;;;;;;;12.55;7.90;;;7.70;99.90;;;;;;5025199;28;20029;-81
2021/10/16 06:19:29;;;;;;;21.90;8.18;;;7.70;99.90;;;;;;5019552;28;20088;-80
2021/10/16 06:21:55;;;;;;;14.65;6.70;;;7.80;99.90;;;;;;5024542;28;20041;-80
2021/10/16 06:24:20;;;;;;;17.27;7.68;;;7.80;99.90;;;;;;5028243;28;20086;-79
2021/10/16 06:26:46;;;;;;;17.73;7.78;;;7.90;99.90;;;;;;5027353;28;20625;-80
2021/10/16 06:29:11;;;;;;;12.43;6.60;;;7.90;99.90;;;;;;5027340;28;20026;-79
2021/10/16 06:31:37;;;;;;;13.13;6.18;;;7.90;99.90;;;;;;5027498;28;20496;-81
2021/10/16 06:34:02;;;;;;;22.27;7.50;;;7.90;99.90;;;;;;5026187;28;20029;-80
2021/10/16 06:36:28;;;;;;;10.45;6.50;;;7.90;99.90;;;;;;5029455;28;20029;-81
2021/10/16 06:38:54;;;;;;;17.38;7.55;;;8.00;99.90;;;;;;5025777;28;20029;-78
2021/10/16 06:41:19;;;;;;;14.35;6.38;;;8.00;99.90;;;;;;5026192;28;20156;-81
2021/10/16 06:43:45;;;;;;;15.50;6.22;;;8.10;99.90;;;;;;5025506;28;20038;-81
2021/10/16 06:46:10;;;;;;;19.15;7.05;;;8.10;99.90;;;;;;5028489;28;20338;-78
2021/10/16 06:48:36;;;;;;;11.82;6.38;;;8.10;99.90;;;;;;5026932;28;20041;-80
2021/10/16 06:51:01;;;;;;;13.02;6.10;;;8.10;99.90;;;;;;5035219;28;20037;-81
2021/10/16 06:53:27;;;;;;;11.00;5.30;;;8.20;99.90;;;;;;5024150;28;20068;-81
2021/10/16 06:55:52;;;;;;;15.48;5.82;;;8.20;99.90;;;;;;5026129;28;20120;-80
2021/10/16 06:58:18;;;;;;;10.32;5.68;;;8.30;99.90;;;;;;5027483;28;20079;-81
2021/10/16 07:00:43;;;;;;;13.35;5.40;;;8.30;99.90;;;;;;5023212;28;20042;-80
2021/10/16 07:03:13;;;;;;;14.60;5.32;;;8.40;99.90;;;;;;5022358;28;20033;-80
2021/10/16 07:05:40;;;;;;;15.65;4.70;;;8.40;99.90;;;;;;5037288;28;20057;-79
2021/10/16 07:08:06;;;;;;;10.98;5.45;;;8.50;99.90;;;;;;5019926;28;20034;-80
2021/10/16 07:10:31;;;;;;;12.98;4.78;;;8.50;99.90;;;;;;5027630;28;20108;-79
2021/10/16 07:13:01;;;;;;;9.70;5.25;;;8.60;99.90;;;;;;5017511;28;20101;-79
2021/10/16 07:15:27;;;;;;;10.43;5.07;;;8.60;99.90;;;;;;5023578;28;20076;-79
2021/10/16 07:17:52;;;;;;;11.68;4.20;;;8.70;99.90;;;;;;5027836;28;20033;-79
2021/10/16 07:20:18;;;;;;;5.90;4.60;;;8.70;99.90;;;;;;5028947;28;20029;-79
2021/10/16 07:22:43;;;;;;;9.52;5.03;;;8.80;99.90;;;;;;5027804;28;20076;-79
2021/10/16 07:25:09;;;;;;;14.50;4.90;;;8.80;99.90;;;;;;5023867;28;20391;-80
2021/10/16 07:27:34;;;;;;;9.88;4.93;;;8.90;99.90;;;;;;5011242;28;20034;-80
2021/10/16 07:30:00;;;;;;;10.95;5.18;;;8.90;99.90;;;;;;5008186;28;20034;-80
2021/10/16 07:32:26;;;;;;;8.57;4.68;;;9.00;99.90;;;;;;5007005;28;20475;-80
2021/10/16 07:34:51;;;;;;;11.30;4.53;;;9.10;99.90;;;;;;5008948;28;20033;-80
2021/10/16 07:37:17;;;;;;;8.85;4.90;;;9.20;99.90;;;;;;5006854;28;20045;-79
2021/10/16 07:39:42;;;;;;;6.20;4.20;;;9.30;99.90;;;;;;5022044;28;20125;-79
2021/10/16 07:42:08;;;;;;;8.38;4.30;;;9.40;99.90;;;;;;5007280;28;20034;-79
2021/10/16 07:44:33;;;;;;;7.55;4.50;;;9.40;99.90;;;;;;5007489;28;20482;-79
2021/10/16 07:46:59;;;;;;;10.15;5.07;;;9.50;99.90;;;;;;5005798;28;20037;-78
2021/10/16 07:49:24;;;;;;;9.55;5.32;;;9.50;99.90;;;;;;5006924;28;20033;-80
2021/10/16 07:51:50;;;;;;;14.43;4.40;;;9.60;99.90;;;;;;5006698;28;20030;-79
2021/10/16 07:54:15;;;;;;;10.10;5.03;;;9.70;99.90;;;;;;5009133;28;20045;-80
2021/10/16 07:56:41;;;;;;;14.43;4.75;;;9.70;99.90;;;;;;5023984;28;20041;-80
2021/10/16 07:59:06;;;;;;;9.40;4.00;;;9.70;99.90;;;;;;5008393;28;20471;-80
2021/10/16 08:01:32;;;;;;;10.07;4.43;;;9.80;99.90;;;;;;5007442;28;20026;-80
2021/10/16 08:03:59;;;;;;;11.65;4.25;;;9.90;99.90;;;;;;5008857;28;20045;-80
2021/10/16 08:06:25;;;;;;;9.05;5.43;;;9.90;99.90;;;;;;5009094;28;20040;-80
2021/10/16 08:08:50;;;;;;;9.85;4.32;;;10.00;99.90;;;;;;5012072;28;20180;-79
2021/10/16 08:11:16;;;;;;;5.40;3.60;;;10.10;99.90;;;;;;5012557;28;20119;-80
2021/10/16 08:13:41;;;;;;;12.27;3.90;;;10.10;99.90;;;;;;5012527;28;20041;-79
2021/10/16 08:16:07;;;;;;;6.82;3.78;;;10.10;99.90;;;;;;5012664;28;20095;-81
2021/10/16 08:18:32;;;;;;;7.88;3.85;;;10.10;99.90;;;;;;5011629;28;20093;-79
2021/10/16 08:20:58;;;;;;;7.75;3.88;;;10.20;99.90;;;;;;5012430;28;20129;-80
2021/10/16 08:23:23;;;;;;;12.13;4.47;;;10.30;99.90;;;;;;5011812;28;20026;-79
2021/10/16 08:25:49;;;;;;;8.45;3.90;;;10.30;99.90;;;;;;5012092;28;20087;-79
2021/10/16 08:28:14;;;;;;;9.10;4.40;;;10.40;99.90;;;;;;5011633;28;20125;-79
2021/10/16 08:30:46;;;;;;;8.60;3.80;;;10.50;99.80;;;;;;5012314;28;20029;-79
2021/10/16 08:33:11;;;;;;;6.88;3.72;;;10.60;99.90;;;;;;5027530;28;20121;-80
2021/10/16 08:35:37;;;;;;;12.55;4.00;;;10.70;99.70;;;;;;5012047;28;20117;-80
2021/10/16 08:38:03;;;;;;;8.10;4.38;;;10.70;99.40;;;;;;5011223;28;20053;-80
2021/10/16 08:40:28;;;;;;;6.47;3.42;;;10.70;99.20;;;;;;5011681;28;20477;-80
2021/10/16 08:42:54;;;;;;;5.55;3.28;;;10.70;98.90;;;;;;5010602;28;20030;-81
2021/10/16 08:45:20;;;;;;;9.63;4.03;;;10.70;99.10;;;;;;5027182;28;20050;-81
2021/10/16 08:47:46;;;;;;;8.10;3.88;;;10.70;99.30;;;;;;5026384;28;20064;-81
2021/10/16 08:50:13;;;;;;;11.23;4.72;;;10.70;99.50;;;;;;5011652;28;20459;-80
2021/10/16 08:52:39;;;;;;;11.75;3.65;;;10.70;99.30;;;;;;5011381;28;20554;-81
2021/10/16 08:55:07;;;;;;;11.95;4.32;;;10.80;99.30;;;;;;5011782;28;20026;-79
2021/10/16 08:57:34;;;;;;;5.80;3.63;;;10.90;99.20;;;;;;5026170;28;20033;-81
2021/10/16 09:00:38;;;;;;;6.45;3.25;;;11.00;99.40;;;;;;5011205;28;20030;-80
2021/10/16 09:03:24;;;;;;;9.63;4.13;;;11.10;99.50;;;;;;5011290;28;20482;-80
2021/10/16 09:06:14;;;;;;;6.47;3.05;;;11.30;99.20;;;;;;5011605;28;20038;-79
2021/10/16 09:09:03;;;;;;;7.05;3.60;;;11.40;98.40;;;;;;5011192;28;20084;-81
2021/10/16 09:11:33;;;;;;;7.30;2.80;;;11.60;98.40;;;;;;5009611;28;20034;-82
2021/10/16 09:14:26;;;;;;;6.07;2.78;;;11.70;98.00;;;;;;5026442;28;20084;-80
2021/10/16 09:16:57;;;;;;;7.88;3.90;;;11.90;98.00;;;;;;5009828;28;20042;-80
2021/10/16 09:19:25;;;;;;;5.15;2.90;;;12.00;97.80;;;;;;5009865;28;20061;-82
2021/10/16 09:21:56;;;;;;;4.75;2.63;;;12.10;97.40;;;;;;5015118;28;20084;-82
2021/10/16 09:24:27;;;;;;;12.82;3.63;;;12.00;96.80;;;;;;5011667;28;20030;-82
2021/10/16 09:26:55;;;;;;;8.65;3.28;;;12.10;97.30;;;;;;5011005;28;20092;-81
2021/10/16 09:29:22;;;;;;;8.82;2.67;;;12.10;97.20;;;;;;5010666;28;20041;-82
2021/10/16 09:31:55;;;;;;;7.13;3.33;;;12.10;97.70;;;;;;5011089;28;20040;-79
2021/10/16 09:34:42;;;;;;;10.65;3.72;;;12.20;97.40;;;;;;5011082;28;20025;-80
2021/10/16 09:37:19;;;;;;;7.22;2.95;;;12.20;97.10;;;;;;5011495;28;20037;-82
2021/10/16 09:39:47;;;;;;;9.05;3.35;;;12.30;97.30;;;;;;5010913;28;20022;-79
2021/10/16 09:42:15;;;;;;;6.78;3.03;;;12.30;97.10;;;;;;5010704;28;20029;-81
2021/10/16 09:44:44;;;;;;;9.00;3.53;;;12.40;97.40;;;;;;5011165;28;20117;-79
2021/10/16 09:47:18;;;;;;;6.57;2.88;;;12.40;98.30;;;;;;5012636;28;20033;-79
2021/10/16 09:49:49;;;;;;;6.78;2.60;;;12.50;97.40;;;;;;5014926;28;20052;-79
2021/10/16 09:52:17;;;;;;;9.23;3.55;;;12.50;97.10;;;;;;5015218;28;20080;-79
2021/10/16 09:54:47;;;;;;;10.77;3.03;;;12.50;96.60;;;;;;5015112;28;20034;-80
2021/10/16 09:57:14;;;;;;;8.07;2.80;;;12.50;96.60;;;;;;5013252;28;20044;-80
2021/10/16 09:59:41;;;;;;;9.77;2.60;;;12.50;97.10;;;;;;5011266;28;20056;-79
2021/10/16 10:02:08;;;;;;;7.47;2.50;;;12.50;96.60;;;;;;5008688;28;20499;-79
2021/10/16 10:04:40;;;;;;;10.32;3.28;;;12.50;97.10;;;;;;5010454;28;20519;-80
2021/10/16 10:07:07;;;;;;;10.43;2.90;;;12.50;96.90;;;;;;5010194;28;20064;-79
2021/10/16 10:09:34;;;;;;;6.65;3.38;;;12.60;97.00;;;;;;5009532;28;20066;-79
2021/10/16 10:12:01;;;;;;;10.50;3.35;;;12.60;96.50;;;;;;5008484;28;20129;-78
2021/10/16 10:14:28;;;;;;;8.85;2.83;;;12.70;97.20;;;;;;5010038;28;20419;-79
2021/10/16 10:17:01;;;;;;;5.70;2.53;;;12.80;96.60;;;;;;5010020;28;20025;-81
2021/10/16 10:19:29;;;;;;;7.15;3.00;;;12.90;96.80;;;;;;5025076;28;20030;-82
2021/10/16 10:21:56;;;;;;;5.07;2.92;;;13.00;95.90;;;;;;5008338;28;20121;-80
2021/10/16 10:24:36;;;;;;;8.07;2.90;;;13.10;95.90;;;;;;5010358;28;20556;-80
2021/10/16 10:27:06;;;;;;;6.35;3.10;;;13.30;95.70;;;;;;5009809;28;20053;-80
2021/10/16 10:29:37;;;;;;;8.82;2.65;;;13.40;95.60;;;;;;5009144;28;20080;-79
2021/10/16 10:32:05;;;;;;;7.50;2.72;;;13.60;96.00;;;;;;5008974;28;20482;-79
2021/10/16 10:34:39;;;;;;;7.68;2.60;;;13.80;95.60;;;;;;5010074;28;20140;-79
2021/10/16 10:37:08;;;;;;;6.60;3.13;;;14.00;95.70;;;;;;5009587;28;20041;-81
2021/10/16 10:39:34;;;;;;;5.25;2.50;;;14.10;94.90;;;;;;5007961;28;20103;-78
2021/10/16 10:42:22;;;;;;;7.07;2.33;;;14.20;94.80;;;;;;5009318;28;20029;-79
2021/10/16 10:44:59;;;;;;;10.93;2.58;;;14.40;94.40;;;;;;5009863;28;20128;-82
2021/10/16 10:47:30;;;;;;;9.02;2.72;;;14.40;93.70;;;;;;5009425;28;20092;-79
2021/10/16 10:49:58;;;;;;;3.63;2.05;;;14.40;93.50;;;;;;5009091;28;20474;-80
2021/10/16 10:52:26;;;;;;;6.93;2.35;;;14.40;93.70;;;;;;5024255;28;20030;-81
2021/10/16 10:55:09;;;;;;;10.10;3.15;;;14.40;93.80;;;;;;5029216;28;20021;-80
2021/10/16 10:57:44;;;;;;;9.88;2.80;;;14.30;93.60;;;;;;5049486;28;20612;-80
2021/10/16 11:00:12;;;;;;;6.65;2.03;;;14.30;94.20;;;;;;5047851;28;20035;-79
2021/10/16 11:02:38;;;;;;;10.10;2.35;;;14.20;94.20;;;;;;5048999;28;20028;-81
2021/10/16 11:05:24;;;;;;;11.57;1.80;;;14.20;94.20;;;;;;5049022;28;20462;-80
2021/10/16 11:07:49;;;;;;;4.65;1.63;;;14.20;94.10;;;;;;5048310;28;20032;-80
2021/10/16 11:10:16;;;;;;;4.55;1.40;;;14.10;93.50;;;;;;5051530;28;20033;-80
2021/10/16 11:12:43;;;;;;;5.63;2.00;;;14.00;93.60;;;;;;5055155;28;20054;-79
2021/10/16 11:15:12;;;;;;;3.97;1.35;;;14.00;94.30;;;;;;5041794;28;20025;-80
2021/10/16 11:17:43;;;;;;;2.58;1.27;;;13.90;93.60;;;;;;5035742;28;20029;-79
2021/10/16 11:20:13;;;;;;;8.10;1.65;;;13.80;93.90;;;;;;5031741;28;20036;-81
2021/10/16 11:22:43;;;;;;;5.20;1.40;;;13.80;94.10;;;;;;5028902;28;20038;-80
2021/10/16 11:25:13;;;;;;;4.03;1.27;;;13.70;93.80;;;;;;5029090;28;20052;-81
2021/10/16 11:27:38;;;;;;;3.65;1.42;;;13.70;94.20;;;;;;5029579;28;20017;-80
2021/10/16 11:30:18;;;;;;;2.97;1.60;;;13.80;94.10;;;;;;5028978;28;20359;-81
2021/10/16 11:32:43;;;;;;;6.65;1.52;;;13.90;93.40;;;;;;5028622;28;20454;-80
2021/10/16 11:35:09;;;;;;;5.22;0.90;;;14.00;93.50;;;;;;5029221;28;20092;-81
2021/10/16 11:37:47;;;;;;;6.18;1.38;;;14.00;93.50;;;;;;5028823;28;20030;-81
2021/10/16 11:40:18;;;;;;;1.98;1.05;;;14.10;92.70;;;;;;5028630;28;20030;-78
2021/10/16 11:42:48;;;;;;;2.88;1.13;;;14.10;92.00;;;;;;5031090;28;20103;-79
2021/10/16 11:45:19;;;;;;;4.80;1.33;;;14.20;91.80;;;;;;5032652;28;20081;-81
2021/10/16 11:47:49;;;;;;;1.73;0.88;;;14.30;92.20;;;;;;5030770;28;20474;-79
2021/10/16 11:50:27;;;;;;;3.15;1.30;;;14.30;92.20;;;;;;5032394;28;20370;-80
2021/10/16 11:53:10;;;;;;;5.55;1.13;;;14.30;91.60;;;;;;5032286;28;20026;-81
2021/10/16 11:55:36;;;;;;;4.47;0.85;;;14.20;92.00;;;;;;5032532;28;20079;-79
2021/10/16 11:58:11;;;;;;;3.10;1.02;;;14.20;91.50;;;;;;5031362;28;20036;-80
2021/10/16 12:00:37;;;;;;;3.70;1.10;;;14.10;91.90;;;;;;5032504;28;20036;-80
2021/10/16 12:03:18;;;;;;;4.55;1.05;;;14.00;92.00;;;;;;5031976;28;20104;-80
2021/10/16 12:05:53;;;;;;;3.15;1.13;;;14.00;92.10;;;;;;5032438;28;20037;-80
2021/10/16 12:08:24;;;;;;;3.55;1.15;;;14.00;92.00;;;;;;5030105;28;20090;-79
2021/10/16 12:10:55;;;;;;;2.67;1.10;;;13.90;91.90;;;;;;5032490;28;20616;-81
2021/10/16 12:13:41;;;;;;;3.00;1.27;;;13.90;92.10;;;;;;5032096;28;20037;-81
2021/10/16 12:16:17;;;;;;;5.32;1.08;;;13.90;91.50;;;;;;5032093;28;20096;-82
2021/10/16 12:18:54;;;;;;;3.25;1.10;;;13.90;91.90;;;;;;5029741;28;20030;-80
2021/10/16 12:21:55;;;;;;;2.67;1.30;;;13.90;92.20;;;;;;5031759;28;20355;-81
2021/10/16 12:24:23;;;;;;;3.28;0.93;;;14.00;92.60;;;;;;5031699;28;20025;-81
2021/10/16 12:27:06;;;;;;;4.15;1.25;;;14.20;91.80;;;;;;5031922;28;20040;-81
2021/10/16 12:29:35;;;;;;;2.78;0.90;;;14.30;91.30;;;;;;5031370;28;20022;-81
2021/10/16 12:32:04;;;;;;;2.42;1.05;;;14.40;91.60;;;;;;5031587;28;20443;-81
2021/10/16 12:34:31;;;;;;;7.47;1.60;;;14.40;90.90;;;;;;5032114;28;20219;-82
2021/10/16 12:36:58;;;;;;;6.20;1.42;;;14.50;91.40;;;;;;5030285;28;20037;-81
2021/10/16 12:39:44;;;;;;;3.85;1.10;;;14.70;92.00;;;;;;5031164;28;20032;-81
2021/10/16 12:42:21;;;;;;;6.13;1.42;;;15.00;90.50;;;;;;5029879;28;20026;-80
2021/10/16 12:44:49;;;;;;;2.47;1.10;;;15.10;90.80;;;;;;5030119;28;20083;-81
2021/10/16 12:47:33;;;;;;;5.97;1.50;;;15.20;91.10;;;;;;5029059;28;20037;-79
2021/10/16 12:50:03;;;;;;;3.85;1.13;;;15.20;90.30;;;;;;5039314;28;20021;-81
2021/10/16 12:52:37;;;;;;;6.30;1.35;;;15.20;89.90;;;;;;5031140;28;20091;-79